Reno/Tahoe Intl Information

FAA: RNO - ICAO: KRNO

Reno/Tahoe Intl (Airport) Location

State Nevada
County Washoe
City Reno
Reno/Tahoe Intl (Airport) is 3 miles southeast of Reno, NV.
Latitude 39-29-56.8000N
Longitude 119-46-05.2000W
Elevation 4,414ft

Reno/Tahoe Intl METARs

METAR KRNO 060755Z 00000KT 10SM SCT200 03/M04 A3030 RMK AO2 SLP251 T00281039 401781039
Altimeter 30.30"
Temperature 2.8°C (37.0°F)
Wind 0° at 0KT
Clouds scattered at 20,000ft
Visibility 10.0mi
Time observed: 2021-12-06T07:55:00Z

Reno/Tahoe Intl (Airport) Details

Status Operational
Activation November 1938
Ownership Public
Usage Public
Chart SAN FRANCISCO
ATC on-site Yes
Beacon schedule sunset-sunrise
Beacon color clear green

Reno/Tahoe Intl (Airport) Contacts

Owner RENO-TAHOE AIRPORT AUTHORITY
Owner address P O BOX 12490, RENO, NV 89510
Owner phone 775-328-6400
Manager CHRIS JOHNSON
Manager address 1146 AIRPORT ROAD, MINDEN, NV 89423
Manager phone 775-782-9871

Reno/Tahoe Intl Radio Frequencies

Reno/Tahoe Intl (Airport) Radio Frequencies

UNICOM 122.95
Common traffic advisory frequency (CTAF) N/A